createdAt,value
2022-12-08T00:01:31.020Z,11.23
2022-12-08T00:04:00.002Z,12.97
2022-12-08T00:06:52.269Z,12.95
2022-12-08T00:09:24.333Z,11.25
2022-12-08T00:12:00.306Z,12.88
2022-12-08T00:14:33.592Z,12.60
2022-12-08T00:17:01.723Z,12.40
2022-12-08T00:19:29.977Z,12.45
2022-12-08T00:21:58.279Z,13.13
2022-12-08T00:24:30.996Z,14.50
2022-12-08T00:26:58.557Z,14.35
2022-12-08T00:29:26.174Z,15.80
2022-12-08T00:31:54.253Z,12.73
2022-12-08T00:34:21.985Z,15.18
2022-12-08T00:36:49.639Z,13.52
2022-12-08T00:39:18.362Z,13.13
2022-12-08T00:42:04.363Z,13.20
2022-12-08T00:44:31.804Z,12.63
2022-12-08T00:46:59.529Z,12.73
2022-12-08T00:49:27.331Z,13.55
2022-12-08T00:51:54.953Z,12.95
2022-12-08T00:54:23.535Z,17.23
2022-12-08T00:56:51.574Z,12.15
2022-12-08T00:59:19.441Z,14.20
2022-12-08T01:01:48.404Z,14.02
2022-12-08T01:04:17.661Z,14.52
2022-12-08T01:06:46.057Z,14.93
2022-12-08T01:09:15.419Z,11.82
2022-12-08T01:11:44.869Z,16.92
2022-12-08T01:14:13.360Z,14.40
2022-12-08T01:16:41.986Z,17.15
2022-12-08T01:19:15.223Z,14.27
2022-12-08T01:21:44.171Z,12.55
2022-12-08T01:24:15.358Z,15.80
2022-12-08T01:26:42.867Z,13.50
2022-12-08T01:29:11.596Z,15.43
2022-12-08T01:31:39.979Z,14.80
2022-12-08T01:34:08.449Z,15.02
2022-12-08T01:36:39.933Z,16.77
2022-12-08T01:39:16.054Z,14.57
2022-12-08T01:41:44.331Z,13.90
2022-12-08T01:44:11.831Z,14.67
2022-12-08T01:46:44.712Z,14.80
2022-12-08T01:49:17.534Z,13.25
2022-12-08T01:51:48.722Z,12.27
2022-12-08T01:54:17.289Z,14.77
2022-12-08T01:56:55.218Z,16.27
2022-12-08T01:59:24.761Z,15.85
2022-12-08T02:01:53.154Z,13.55
2022-12-08T02:04:20.901Z,13.35
2022-12-08T02:06:49.750Z,14.68
2022-12-08T02:09:17.608Z,13.70
2022-12-08T02:11:45.255Z,14.43
2022-12-08T02:14:14.765Z,14.15
2022-12-08T02:16:58.549Z,14.98
2022-12-08T02:20:03.699Z,13.65
2022-12-08T02:22:40.580Z,14.30
2022-12-08T02:25:39.484Z,11.15
2022-12-08T02:28:37.296Z,13.57
2022-12-08T02:31:29.050Z,14.82
2022-12-08T02:34:05.782Z,13.60
2022-12-08T02:36:56.675Z,12.90
2022-12-08T02:40:07.746Z,14.40
2022-12-08T02:42:42.687Z,11.07
2022-12-08T02:45:13.382Z,13.63
2022-12-08T02:47:41.416Z,13.68
2022-12-08T02:50:10.099Z,12.57
2022-12-08T02:52:48.342Z,12.10
2022-12-08T02:55:26.304Z,12.13
2022-12-08T02:58:38.633Z,11.38
2022-12-08T03:01:24.477Z,10.93
2022-12-08T03:04:10.849Z,9.97
2022-12-08T03:07:05.518Z,10.57
2022-12-08T03:09:55.502Z,10.88
2022-12-08T03:12:46.487Z,11.43
2022-12-08T03:15:17.413Z,10.15
2022-12-08T03:17:49.473Z,11.33
2022-12-08T03:20:21.931Z,10.30
2022-12-08T03:22:51.151Z,9.40
2022-12-08T03:25:22.723Z,8.50
2022-12-08T03:27:51.202Z,9.63
2022-12-08T03:30:19.258Z,8.73
2022-12-08T03:33:15.397Z,8.70
2022-12-08T03:35:44.779Z,10.40
2022-12-08T03:38:15.994Z,9.70
2022-12-08T03:40:44.574Z,7.72
2022-12-08T03:43:12.199Z,8.50
2022-12-08T03:45:39.657Z,8.88
2022-12-08T03:48:07.339Z,8.07
2022-12-08T03:50:34.871Z,6.95
2022-12-08T03:53:02.368Z,8.43
2022-12-08T03:55:29.969Z,8.20
2022-12-08T03:57:57.558Z,6.47
2022-12-08T04:00:25.236Z,7.78
2022-12-08T04:02:52.946Z,7.43
2022-12-08T04:05:20.567Z,6.60
2022-12-08T04:07:48.103Z,9.53
2022-12-08T04:10:15.895Z,6.82
2022-12-08T04:12:43.451Z,6.88
2022-12-08T04:15:11.609Z,6.85
2022-12-08T04:17:39.211Z,7.35
2022-12-08T04:20:07.680Z,6.97
2022-12-08T04:22:35.482Z,6.40
2022-12-08T04:25:03.183Z,6.88
2022-12-08T04:27:30.678Z,6.65
2022-12-08T04:29:58.165Z,8.00
2022-12-08T04:32:25.662Z,7.37
2022-12-08T04:34:53.230Z,6.18
2022-12-08T04:37:20.651Z,6.97
2022-12-08T04:39:48.224Z,7.45
2022-12-08T04:42:15.732Z,7.30
2022-12-08T04:44:43.205Z,7.10
2022-12-08T04:47:10.726Z,7.65
2022-12-08T04:49:38.255Z,7.32
2022-12-08T04:52:06.092Z,6.95
2022-12-08T04:54:34.042Z,7.32
2022-12-08T04:57:01.566Z,7.03
2022-12-08T04:59:30.854Z,6.68
2022-12-08T05:01:58.885Z,7.07
2022-12-08T05:04:26.598Z,6.72
2022-12-08T05:06:54.158Z,6.00
2022-12-08T05:09:21.837Z,8.30
2022-12-08T05:11:49.486Z,11.43
2022-12-08T05:14:19.082Z,8.57
2022-12-08T05:16:47.503Z,8.05
2022-12-08T05:19:15.519Z,7.10
2022-12-08T05:21:43.871Z,9.10
2022-12-08T05:24:11.659Z,8.25
2022-12-08T05:26:39.195Z,7.55
2022-12-08T05:29:06.652Z,8.57
2022-12-08T05:31:35.777Z,9.48
2022-12-08T05:34:03.725Z,8.33
2022-12-08T05:36:31.418Z,9.43
2022-12-08T05:38:59.139Z,8.75
2022-12-08T05:41:26.737Z,9.43
2022-12-08T05:43:54.323Z,9.50
2022-12-08T05:46:21.914Z,10.87
2022-12-08T05:48:49.446Z,19.02
2022-12-08T05:51:24.622Z,9.48
2022-12-08T05:53:53.553Z,10.32
2022-12-08T05:56:22.396Z,10.60
2022-12-08T05:58:50.367Z,10.60
2022-12-08T06:01:29.637Z,10.98
2022-12-08T06:03:59.515Z,10.65
2022-12-08T06:06:28.130Z,9.85
2022-12-08T06:08:55.839Z,12.38
2022-12-08T06:11:26.052Z,10.60
2022-12-08T06:13:54.039Z,11.20
2022-12-08T06:16:21.992Z,11.68
2022-12-08T06:18:49.876Z,10.75
2022-12-08T06:21:18.327Z,11.43
2022-12-08T06:23:52.167Z,12.20
2022-12-08T06:26:20.406Z,10.07
2022-12-08T06:28:49.813Z,13.70
2022-12-08T06:31:18.938Z,15.77
2022-12-08T06:33:46.728Z,13.07
2022-12-08T06:36:16.966Z,13.43
2022-12-08T06:38:44.938Z,13.25
2022-12-08T06:41:13.239Z,15.52
2022-12-08T06:43:41.523Z,11.27
2022-12-08T06:46:12.715Z,12.90
2022-12-08T06:48:40.520Z,8.77
2022-12-08T06:51:16.717Z,9.07
2022-12-08T06:53:45.324Z,9.38
2022-12-08T06:56:13.692Z,11.35
2022-12-08T06:58:41.295Z,9.75
2022-12-08T07:01:12.012Z,10.67
2022-12-08T07:03:40.724Z,11.07
2022-12-08T07:06:08.639Z,9.98
2022-12-08T07:08:36.525Z,10.05
2022-12-08T07:11:15.293Z,8.40
2022-12-08T07:13:46.033Z,8.40
2022-12-08T07:16:13.908Z,8.60
2022-12-08T07:18:43.210Z,8.98
2022-12-08T07:21:13.545Z,8.70
2022-12-08T07:23:41.402Z,9.48
2022-12-08T07:26:12.146Z,8.17
2022-12-08T07:28:41.365Z,7.78
2022-12-08T07:31:17.662Z,6.70
2022-12-08T07:33:45.407Z,6.25
2022-12-08T07:36:13.204Z,6.78
2022-12-08T07:38:40.976Z,5.83
2022-12-08T07:41:16.549Z,6.63
2022-12-08T07:43:44.822Z,6.60
2022-12-08T07:46:14.695Z,5.78
2022-12-08T07:48:42.976Z,6.43
2022-12-08T07:51:14.017Z,6.13
2022-12-08T07:53:45.305Z,6.63
2022-12-08T07:56:15.534Z,6.53
2022-12-08T07:58:45.721Z,5.38
2022-12-08T08:01:25.758Z,8.63
2022-12-08T08:03:54.697Z,8.67
2022-12-08T08:06:22.329Z,8.43
2022-12-08T08:08:49.853Z,7.07
2022-12-08T08:11:21.381Z,7.40
2022-12-08T08:13:52.962Z,7.85
2022-12-08T08:16:21.056Z,6.40
2022-12-08T08:18:50.834Z,5.90
2022-12-08T08:21:44.569Z,6.18
2022-12-08T08:24:07.849Z,8.73
2022-12-08T08:26:35.402Z,7.72
2022-12-08T08:29:02.917Z,6.17
2022-12-08T08:31:30.574Z,6.53
2022-12-08T08:33:58.358Z,5.50
2022-12-08T08:36:25.705Z,7.53
2022-12-08T08:38:53.200Z,7.55
2022-12-08T08:41:20.703Z,7.27
2022-12-08T08:43:48.268Z,5.15
2022-12-08T08:46:15.724Z,6.35
2022-12-08T08:48:43.184Z,5.63
2022-12-08T08:51:13.061Z,6.45
2022-12-08T08:53:41.357Z,7.47
2022-12-08T08:56:16.815Z,6.40
2022-12-08T08:58:44.689Z,5.70
2022-12-08T09:01:17.500Z,6.63
2022-12-08T09:03:45.975Z,6.68
2022-12-08T09:06:14.639Z,6.60
2022-12-08T09:08:43.343Z,5.97
2022-12-08T09:11:11.519Z,7.10
2022-12-08T09:13:39.624Z,27.23
2022-12-08T09:16:08.893Z,5.53
2022-12-08T09:18:36.409Z,5.97
2022-12-08T09:21:08.957Z,5.47
2022-12-08T09:23:36.684Z,6.13
2022-12-08T09:26:05.438Z,5.22
2022-12-08T09:28:33.646Z,4.95
2022-12-08T09:31:01.397Z,5.53
2022-12-08T09:33:28.968Z,5.93
2022-12-08T09:35:56.481Z,5.32
2022-12-08T09:38:24.036Z,5.15
2022-12-08T09:40:54.533Z,4.95
2022-12-08T09:43:51.792Z,8.77
2022-12-08T09:46:20.710Z,5.03
2022-12-08T09:48:57.474Z,4.80
2022-12-08T09:51:28.138Z,5.22
2022-12-08T09:54:35.254Z,5.85
2022-12-08T09:57:10.713Z,6.57
2022-12-08T09:59:38.428Z,7.10
2022-12-08T10:02:24.926Z,5.82
2022-12-08T10:04:56.045Z,6.78
2022-12-08T10:07:35.830Z,6.13
2022-12-08T10:10:25.623Z,6.07
2022-12-08T10:13:14.459Z,6.00
2022-12-08T10:16:04.082Z,6.25
2022-12-08T10:18:34.627Z,6.15
2022-12-08T10:21:20.870Z,5.47
2022-12-08T10:23:53.427Z,5.97
2022-12-08T10:26:22.998Z,7.32
2022-12-08T10:28:50.978Z,8.43
2022-12-08T10:31:24.419Z,7.22
2022-12-08T10:34:00.927Z,7.63
2022-12-08T10:36:49.523Z,6.93
2022-12-08T10:39:38.744Z,7.70
2022-12-08T10:42:15.084Z,8.00
2022-12-08T10:45:26.617Z,6.20
2022-12-08T10:48:04.469Z,6.55
2022-12-08T10:50:42.372Z,6.87
2022-12-08T10:53:09.845Z,7.38
2022-12-08T10:55:52.784Z,6.10
2022-12-08T10:58:44.122Z,7.15
2022-12-08T11:01:11.726Z,7.00
2022-12-08T11:03:46.040Z,6.73
2022-12-08T11:06:24.841Z,6.15
2022-12-08T11:08:59.820Z,6.22
2022-12-08T11:11:57.039Z,6.85
2022-12-08T11:14:32.204Z,7.07
2022-12-08T11:17:23.649Z,5.87
2022-12-08T11:20:19.891Z,5.60
2022-12-08T11:22:53.818Z,6.97
2022-12-08T11:25:23.163Z,6.32
2022-12-08T11:27:58.619Z,6.10
2022-12-08T11:30:32.541Z,6.60
2022-12-08T11:33:13.657Z,6.75
2022-12-08T11:35:44.607Z,7.15
2022-12-08T11:38:22.165Z,6.25
2022-12-08T11:40:57.647Z,7.28
2022-12-08T11:43:37.202Z,6.73
2022-12-08T11:46:18.144Z,6.15
2022-12-08T11:49:06.947Z,7.13
2022-12-08T11:51:44.445Z,8.20
2022-12-08T11:54:12.045Z,8.82
2022-12-08T11:56:55.004Z,7.50
2022-12-08T11:59:30.525Z,7.63
2022-12-08T12:02:00.540Z,8.20
2022-12-08T12:04:42.583Z,8.40
2022-12-08T12:07:44.180Z,7.53
2022-12-08T12:10:28.952Z,6.37
2022-12-08T12:13:02.014Z,10.15
2022-12-08T12:15:50.661Z,9.10
2022-12-08T12:18:20.841Z,9.18
2022-12-08T12:20:57.296Z,9.82
2022-12-08T12:23:44.341Z,8.93
2022-12-08T12:26:26.217Z,9.27
2022-12-08T12:28:56.525Z,9.02
2022-12-08T12:31:28.864Z,8.68
2022-12-08T12:34:09.067Z,8.05
2022-12-08T12:36:52.780Z,8.70
2022-12-08T12:39:24.069Z,10.07
2022-12-08T12:42:00.339Z,9.38
2022-12-08T12:44:33.494Z,9.23
2022-12-08T12:47:03.700Z,8.50
2022-12-08T12:49:40.282Z,10.40
2022-12-08T12:52:10.979Z,8.65
2022-12-08T12:54:43.916Z,10.00
2022-12-08T12:57:11.407Z,10.15
2022-12-08T12:59:56.186Z,9.75
2022-12-08T13:02:47.861Z,9.80
2022-12-08T13:05:33.135Z,11.40
2022-12-08T13:08:08.254Z,8.38
2022-12-08T13:10:39.507Z,9.32
2022-12-08T13:13:13.062Z,14.00
2022-12-08T13:15:42.293Z,9.43
2022-12-08T13:18:19.192Z,10.80
2022-12-08T13:20:51.041Z,10.10
2022-12-08T13:23:49.428Z,11.07
2022-12-08T13:26:27.826Z,12.45
2022-12-08T13:29:07.383Z,10.77
2022-12-08T13:31:51.429Z,9.65
2022-12-08T13:34:46.746Z,10.07
2022-12-08T13:37:31.731Z,10.40
2022-12-08T13:40:15.579Z,14.57
2022-12-08T13:42:56.783Z,16.47
2022-12-08T13:46:10.879Z,17.27
2022-12-08T13:55:12.277Z,14.00
2022-12-08T13:57:35.110Z,12.80
2022-12-08T14:00:15.862Z,14.25
2022-12-08T14:02:49.625Z,12.77
2022-12-08T14:05:29.746Z,13.05
2022-12-08T14:08:58.027Z,14.45
2022-12-08T14:11:39.423Z,15.87
2022-12-08T14:14:32.581Z,13.55
2022-12-08T14:17:21.431Z,12.65
2022-12-08T14:20:06.934Z,14.45
2022-12-08T14:22:37.320Z,16.00
2022-12-08T14:25:06.486Z,18.47
2022-12-08T14:27:36.628Z,13.98
2022-12-08T14:30:26.982Z,17.25
2022-12-08T14:33:00.108Z,16.50
2022-12-08T14:35:37.253Z,16.25
2022-12-08T14:38:15.842Z,13.50
2022-12-08T14:40:48.629Z,17.30
2022-12-08T14:43:20.338Z,24.15
2022-12-08T14:45:51.099Z,18.30
2022-12-08T14:48:39.763Z,16.85
2022-12-08T14:51:19.523Z,16.63
2022-12-08T14:54:00.905Z,17.63
2022-12-08T14:56:38.791Z,16.33
2022-12-08T14:59:15.571Z,19.17
2022-12-08T15:01:44.371Z,28.20
2022-12-08T15:04:17.385Z,30.63
2022-12-08T15:06:47.638Z,29.48
2022-12-08T15:09:49.373Z,21.98
2022-12-08T15:12:26.680Z,16.73
2022-12-08T15:15:01.685Z,17.83
2022-12-08T15:17:44.197Z,17.67
2022-12-08T15:20:39.421Z,21.58
2022-12-08T15:23:16.808Z,19.52
2022-12-08T15:25:44.287Z,19.42
2022-12-08T15:28:17.418Z,16.85
2022-12-08T15:30:45.033Z,16.80
2022-12-08T15:33:12.653Z,36.75
2022-12-08T15:35:43.212Z,16.08
2022-12-08T15:38:36.688Z,13.32
2022-12-08T15:41:10.138Z,20.00
2022-12-08T15:43:40.887Z,23.87
2022-12-08T15:46:08.441Z,26.02
2022-12-08T15:48:38.506Z,18.35
2022-12-08T15:51:06.023Z,15.82
2022-12-08T15:53:33.647Z,18.05
2022-12-08T15:58:56.607Z,14.73
2022-12-08T16:01:26.028Z,14.35
2022-12-08T16:09:42.630Z,19.63
2022-12-08T16:15:59.051Z,22.77
2022-12-08T16:18:27.923Z,10.98
2022-12-08T16:23:45.017Z,8.50
2022-12-08T16:29:07.740Z,8.73
2022-12-08T16:31:36.081Z,7.38
2022-12-08T16:34:03.686Z,9.05
2022-12-08T16:36:31.442Z,9.60
2022-12-08T16:38:58.843Z,9.07
2022-12-08T16:41:44.796Z,8.48
2022-12-08T16:44:12.281Z,9.32
2022-12-08T16:46:40.126Z,6.95
2022-12-08T16:49:09.966Z,9.27
2022-12-08T16:51:37.925Z,8.88
2022-12-08T16:54:05.482Z,9.90
2022-12-08T16:56:33.718Z,7.82
2022-12-08T16:59:02.629Z,9.43
2022-12-08T17:01:30.740Z,7.70
2022-12-08T17:06:47.196Z,9.18
2022-12-08T17:09:14.945Z,7.68
2022-12-08T17:11:45.471Z,8.65
2022-12-08T17:14:14.858Z,10.30
2022-12-08T17:16:43.795Z,9.27
2022-12-08T17:19:19.509Z,9.57
2022-12-08T17:21:47.485Z,8.25
2022-12-08T17:24:20.233Z,8.48
2022-12-08T17:26:50.134Z,7.67
2022-12-08T17:29:19.965Z,8.82
2022-12-08T17:31:47.482Z,9.85
2022-12-08T17:34:16.042Z,9.40
2022-12-08T17:36:43.814Z,9.60
2022-12-08T17:39:17.836Z,8.23
2022-12-08T17:41:46.848Z,9.98
2022-12-08T17:44:17.327Z,11.38
2022-12-08T17:46:50.722Z,12.93
2022-12-08T17:49:24.372Z,10.45
2022-12-08T17:51:54.459Z,15.00
2022-12-08T17:54:22.749Z,10.93
2022-12-08T17:56:50.592Z,10.20
2022-12-08T17:59:19.925Z,11.35
2022-12-08T18:01:48.345Z,13.85
2022-12-08T18:04:19.696Z,11.77
2022-12-08T18:06:53.158Z,10.13
2022-12-08T18:09:22.863Z,11.63
2022-12-08T18:11:53.462Z,11.10
2022-12-08T18:14:33.894Z,10.77
2022-12-08T18:17:03.090Z,8.17
2022-12-08T18:19:35.157Z,10.50
2022-12-08T18:22:04.244Z,8.65
2022-12-08T18:24:32.677Z,8.77
2022-12-08T18:27:01.437Z,9.45
2022-12-08T18:29:29.627Z,9.30
2022-12-08T18:31:57.307Z,10.30
2022-12-08T18:34:26.350Z,9.02
2022-12-08T18:36:54.668Z,9.48
2022-12-08T18:39:31.206Z,9.88
2022-12-08T18:42:23.568Z,9.17
2022-12-08T18:45:07.179Z,9.38
2022-12-08T18:47:40.247Z,8.45
2022-12-08T18:50:20.123Z,8.40
2022-12-08T18:52:50.134Z,8.05
2022-12-08T18:55:22.633Z,8.40
2022-12-08T18:57:51.175Z,7.60
2022-12-08T19:00:21.035Z,6.88
2022-12-08T19:02:49.202Z,8.60
2022-12-08T19:05:17.918Z,9.15
2022-12-08T19:07:45.980Z,7.93
2022-12-08T19:10:14.024Z,7.70
2022-12-08T19:12:44.544Z,7.85
2022-12-08T19:15:13.087Z,8.43
2022-12-08T19:17:41.203Z,9.63
2022-12-08T19:20:09.391Z,8.53
2022-12-08T19:22:37.837Z,10.80
2022-12-08T19:25:05.877Z,9.25
2022-12-08T19:27:35.616Z,10.55
2022-12-08T19:30:03.297Z,8.75
2022-12-08T19:32:31.639Z,8.83
2022-12-08T19:34:59.473Z,10.13
2022-12-08T19:37:26.965Z,10.02
2022-12-08T19:40:13.040Z,11.00
2022-12-08T19:42:59.004Z,9.60
2022-12-08T19:45:27.309Z,8.63
2022-12-08T19:47:55.083Z,10.73
2022-12-08T19:50:37.879Z,8.88
2022-12-08T19:53:16.999Z,10.40
2022-12-08T19:55:45.158Z,11.55
2022-12-08T19:58:13.995Z,13.07
2022-12-08T20:00:46.317Z,11.38
2022-12-08T20:03:19.532Z,11.93
2022-12-08T20:05:49.512Z,9.63
2022-12-08T20:08:17.587Z,9.88
2022-12-08T20:10:46.194Z,11.43
2022-12-08T20:13:44.053Z,11.35
2022-12-08T20:16:12.528Z,11.73
2022-12-08T20:18:42.176Z,12.00
2022-12-08T20:21:12.100Z,11.48
2022-12-08T20:23:40.355Z,12.60
2022-12-08T20:26:10.457Z,10.10
2022-12-08T20:28:38.320Z,14.00
2022-12-08T20:31:06.869Z,12.48
2022-12-08T20:33:34.697Z,11.95
2022-12-08T20:36:05.288Z,12.37
2022-12-08T20:38:33.348Z,11.88
2022-12-08T20:41:01.043Z,12.32
2022-12-08T20:43:28.662Z,13.80
2022-12-08T20:45:56.215Z,12.43
2022-12-08T20:48:24.300Z,12.20
2022-12-08T20:50:52.893Z,12.70
2022-12-08T20:53:21.590Z,15.05
2022-12-08T20:55:49.414Z,13.50
2022-12-08T20:58:17.276Z,14.73
2022-12-08T21:00:44.965Z,12.73
2022-12-08T21:03:17.955Z,13.57
2022-12-08T21:05:53.291Z,15.07
2022-12-08T21:08:20.931Z,14.70
2022-12-08T21:10:57.688Z,13.98
2022-12-08T21:13:26.152Z,16.83
2022-12-08T21:15:54.107Z,17.38
2022-12-08T21:18:22.761Z,15.57
2022-12-08T21:20:51.914Z,15.38
2022-12-08T21:23:19.837Z,15.50
2022-12-08T21:25:48.260Z,16.07
2022-12-08T21:28:15.993Z,13.73
2022-12-08T21:30:43.854Z,18.70
2022-12-08T21:33:11.406Z,18.15
2022-12-08T21:35:39.404Z,17.63
2022-12-08T21:38:07.711Z,17.73
2022-12-08T21:40:35.603Z,15.60
2022-12-08T21:43:04.221Z,16.23
2022-12-08T21:45:34.336Z,15.25
2022-12-08T21:48:07.253Z,16.63
2022-12-08T21:50:38.107Z,18.37
2022-12-08T21:53:05.928Z,19.17
2022-12-08T21:55:33.471Z,18.25
2022-12-08T21:58:02.596Z,19.67
2022-12-08T22:00:30.347Z,19.20
2022-12-08T22:02:58.391Z,18.80
2022-12-08T22:05:26.665Z,17.17
2022-12-08T22:07:54.299Z,19.88
2022-12-08T22:10:23.417Z,18.20
2022-12-08T22:12:51.131Z,16.50
2022-12-08T22:15:18.891Z,17.70
2022-12-08T22:17:46.753Z,18.85
2022-12-08T22:20:16.359Z,22.35
2022-12-08T22:22:44.721Z,17.40
2022-12-08T22:25:12.735Z,16.83
2022-12-08T22:27:41.536Z,20.60
2022-12-08T22:30:10.424Z,20.42
2022-12-08T22:32:38.616Z,18.85
2022-12-08T22:35:06.786Z,20.88
2022-12-08T22:37:34.431Z,18.70
2022-12-08T22:40:02.050Z,20.63
2022-12-08T22:42:30.222Z,23.60
2022-12-08T22:44:57.881Z,18.92
2022-12-08T22:47:25.668Z,15.60
2022-12-08T22:49:53.488Z,17.58
2022-12-08T22:52:21.263Z,20.27
2022-12-08T22:54:49.012Z,17.38
2022-12-08T22:57:17.504Z,18.73
2022-12-08T22:59:45.168Z,20.35
2022-12-08T23:02:12.911Z,21.48
2022-12-08T23:04:40.528Z,22.20
2022-12-08T23:07:08.358Z,20.58
2022-12-08T23:09:35.964Z,20.05
2022-12-08T23:12:04.137Z,20.40
2022-12-08T23:14:31.670Z,18.35
2022-12-08T23:16:59.661Z,20.20
2022-12-08T23:19:27.272Z,21.38
2022-12-08T23:21:54.883Z,21.38
2022-12-08T23:24:22.610Z,21.38
2022-12-08T23:26:50.517Z,21.92
2022-12-08T23:29:18.305Z,17.60
2022-12-08T23:31:45.993Z,18.13
2022-12-08T23:34:13.865Z,19.40
2022-12-08T23:36:41.844Z,20.30
2022-12-08T23:39:10.783Z,17.77
2022-12-08T23:41:38.699Z,20.83
2022-12-08T23:44:07.118Z,19.92
2022-12-08T23:46:35.210Z,18.30
2022-12-08T23:49:03.004Z,17.10
2022-12-08T23:51:30.848Z,17.02
2022-12-08T23:53:58.549Z,21.50
2022-12-08T23:56:30.229Z,19.00
2022-12-08T23:58:58.111Z,18.85
